createdAt,value
2022-08-20T00:00:02.391Z,20.58
2022-08-20T00:00:11.563Z,20.58
2022-08-20T00:00:21.589Z,20.53
2022-08-20T00:00:31.561Z,20.47
2022-08-20T00:00:41.578Z,20.58
2022-08-20T00:00:51.565Z,20.50
2022-08-20T00:01:02.589Z,20.56
2022-08-20T00:01:11.563Z,20.59
2022-08-20T00:01:21.565Z,20.64
2022-08-20T00:01:31.574Z,20.51
2022-08-20T00:01:41.579Z,20.47
2022-08-20T00:01:51.666Z,20.58
2022-08-20T00:02:01.675Z,20.56
2022-08-20T00:02:11.737Z,20.59
2022-08-20T00:02:21.555Z,20.49
2022-08-20T00:02:31.547Z,20.58
2022-08-20T00:02:41.562Z,20.53
2022-08-20T00:02:51.543Z,20.49
2022-08-20T00:03:01.557Z,20.53
2022-08-20T00:03:11.605Z,20.58
2022-08-20T00:03:21.546Z,20.50
2022-08-20T00:03:31.558Z,20.49
2022-08-20T00:03:41.563Z,20.51
2022-08-20T00:03:53.315Z,20.47
2022-08-20T00:04:01.745Z,20.46
2022-08-20T00:04:11.568Z,20.59
2022-08-20T00:04:21.550Z,20.41
2022-08-20T00:04:31.556Z,20.47
2022-08-20T00:04:41.545Z,20.49
2022-08-20T00:04:51.541Z,20.50
2022-08-20T00:05:01.560Z,20.59
2022-08-20T00:05:11.539Z,20.47
2022-08-20T00:05:21.541Z,20.50
2022-08-20T00:05:31.561Z,20.50
2022-08-20T00:05:41.535Z,20.54
2022-08-20T00:05:51.560Z,20.42
2022-08-20T00:06:02.398Z,20.42
2022-08-20T00:06:12.385Z,20.49
2022-08-20T00:06:21.624Z,20.43
2022-08-20T00:06:31.549Z,20.62
2022-08-20T00:06:41.532Z,20.49
2022-08-20T00:06:51.543Z,20.56
2022-08-20T00:07:01.539Z,20.56
2022-08-20T00:07:11.533Z,20.49
2022-08-20T00:07:21.609Z,20.43
2022-08-20T00:07:31.533Z,20.56
2022-08-20T00:07:41.525Z,20.53
2022-08-20T00:07:51.614Z,20.51
2022-08-20T00:08:01.543Z,20.46
2022-08-20T00:08:11.524Z,20.51
2022-08-20T00:08:21.527Z,20.49
2022-08-20T00:08:31.526Z,20.47
2022-08-20T00:08:41.553Z,20.42
2022-08-20T00:08:51.576Z,20.47
2022-08-20T00:09:01.528Z,20.53
2022-08-20T00:09:11.535Z,20.51
2022-08-20T00:09:21.540Z,20.54
2022-08-20T00:09:31.517Z,20.53
2022-08-20T00:09:41.658Z,20.47
2022-08-20T00:09:51.532Z,20.59
2022-08-20T00:10:01.567Z,20.49
2022-08-20T00:10:12.389Z,20.58
2022-08-20T00:10:21.567Z,20.46
2022-08-20T00:10:31.512Z,20.41
2022-08-20T00:10:41.519Z,20.35
2022-08-20T00:10:55.556Z,20.43
2022-08-20T00:11:01.518Z,20.56
2022-08-20T00:11:11.508Z,20.49
2022-08-20T00:11:21.520Z,20.43
2022-08-20T00:11:31.511Z,20.58
2022-08-20T00:11:41.517Z,20.53
2022-08-20T00:11:51.535Z,20.49
2022-08-20T00:12:01.585Z,20.56
2022-08-20T00:12:11.524Z,20.64
2022-08-20T00:12:22.389Z,20.49
2022-08-20T00:12:31.536Z,20.51
2022-08-20T00:12:41.508Z,20.49
2022-08-20T00:12:51.504Z,20.47
2022-08-20T00:13:01.534Z,20.51
2022-08-20T00:13:11.509Z,20.59
2022-08-20T00:13:21.536Z,20.51
2022-08-20T00:13:31.520Z,20.41
2022-08-20T00:13:41.503Z,20.41
2022-08-20T00:13:51.507Z,20.43
2022-08-20T00:14:01.505Z,20.51
2022-08-20T00:14:11.507Z,20.41
2022-08-20T00:14:22.398Z,20.33
2022-08-20T00:14:31.591Z,20.42
2022-08-20T00:14:41.497Z,20.41
2022-08-20T00:14:51.492Z,20.49
2022-08-20T00:15:01.498Z,20.42
2022-08-20T00:15:11.522Z,20.42
2022-08-20T00:15:21.688Z,20.39
2022-08-20T00:15:31.527Z,20.47
2022-08-20T00:15:41.490Z,20.35
2022-08-20T00:15:51.561Z,20.51
2022-08-20T00:16:01.511Z,20.42
2022-08-20T00:16:11.483Z,20.51
2022-08-20T00:16:21.492Z,20.41
2022-08-20T00:16:31.503Z,20.46
2022-08-20T00:16:41.488Z,20.49
2022-08-20T00:16:51.494Z,20.41
2022-08-20T00:17:01.494Z,20.46
2022-08-20T00:17:11.516Z,20.38
2022-08-20T00:17:21.492Z,20.47
2022-08-20T00:17:31.478Z,20.46
2022-08-20T00:17:41.580Z,20.34
2022-08-20T00:17:51.566Z,20.51
2022-08-20T00:18:01.495Z,20.46
2022-08-20T00:18:12.413Z,20.50
2022-08-20T00:18:22.408Z,20.33
2022-08-20T00:18:31.539Z,20.50
2022-08-20T00:18:41.577Z,20.51
2022-08-20T00:18:51.486Z,20.53
2022-08-20T00:19:01.472Z,20.51
2022-08-20T00:19:11.499Z,20.41
2022-08-20T00:19:21.474Z,20.43
2022-08-20T00:19:31.467Z,20.51
2022-08-20T00:19:41.476Z,20.42
2022-08-20T00:19:51.472Z,20.49
2022-08-20T00:20:01.487Z,20.50
2022-08-20T00:20:11.462Z,20.50
2022-08-20T00:20:21.485Z,20.50
2022-08-20T00:20:31.465Z,20.53
2022-08-20T00:20:41.464Z,20.39
2022-08-20T00:20:51.464Z,20.46
2022-08-20T00:21:01.465Z,20.56
2022-08-20T00:21:11.501Z,20.41
2022-08-20T00:21:21.473Z,20.50
2022-08-20T00:21:31.613Z,20.39
2022-08-20T00:21:41.463Z,20.35
2022-08-20T00:21:51.466Z,20.58
2022-08-20T00:22:01.476Z,20.49
2022-08-20T00:22:11.497Z,20.42
2022-08-20T00:22:22.452Z,20.49
2022-08-20T00:22:31.494Z,20.35
2022-08-20T00:22:41.509Z,20.34
2022-08-20T00:22:51.573Z,20.41
2022-08-20T00:23:01.463Z,20.42
2022-08-20T00:23:11.451Z,20.50
2022-08-20T00:23:21.464Z,20.42
2022-08-20T00:23:31.454Z,20.41
2022-08-20T00:23:41.454Z,20.41
2022-08-20T00:23:51.454Z,20.50
2022-08-20T00:24:01.455Z,20.28
2022-08-20T00:24:11.456Z,20.28
2022-08-20T00:24:21.450Z,20.38
2022-08-20T00:24:31.452Z,20.28
2022-08-20T00:24:41.465Z,20.41
2022-08-20T00:24:51.457Z,20.46
2022-08-20T00:25:01.531Z,20.50
2022-08-20T00:25:11.457Z,20.46
2022-08-20T00:25:21.466Z,20.47
2022-08-20T00:25:31.438Z,20.33
2022-08-20T00:25:41.454Z,20.42
2022-08-20T00:25:51.455Z,20.34
2022-08-20T00:26:01.440Z,20.38
2022-08-20T00:26:11.460Z,20.35
2022-08-20T00:26:21.493Z,20.46
2022-08-20T00:26:32.423Z,20.41
2022-08-20T00:26:52.161Z,20.42
2022-08-20T00:26:52.360Z,20.46
2022-08-20T00:27:01.434Z,20.42
2022-08-20T00:27:11.442Z,20.54
2022-08-20T00:27:21.441Z,20.39
2022-08-20T00:27:31.435Z,20.46
2022-08-20T00:27:41.435Z,20.33
2022-08-20T00:27:51.483Z,20.39
2022-08-20T00:28:01.486Z,20.41
2022-08-20T00:28:11.509Z,20.43
2022-08-20T00:28:21.440Z,20.41
2022-08-20T00:28:31.430Z,20.43
2022-08-20T00:28:41.441Z,20.33
2022-08-20T00:28:51.428Z,20.47
2022-08-20T00:29:01.517Z,20.35
2022-08-20T00:29:11.421Z,20.42
2022-08-20T00:29:22.604Z,20.38
2022-08-20T00:29:31.434Z,20.38
2022-08-20T00:29:41.423Z,20.39
2022-08-20T00:29:51.423Z,20.31
2022-08-20T00:30:01.425Z,20.34
2022-08-20T00:30:11.425Z,20.41
2022-08-20T00:30:21.427Z,20.28
2022-08-20T00:30:32.417Z,20.46
2022-08-20T00:30:41.430Z,20.43
2022-08-20T00:30:51.487Z,20.31
2022-08-20T00:31:01.416Z,20.42
2022-08-20T00:31:11.453Z,20.49
2022-08-20T00:31:21.425Z,20.33
2022-08-20T00:31:31.409Z,20.47
2022-08-20T00:31:41.412Z,20.38
2022-08-20T00:31:51.425Z,20.35
2022-08-20T00:32:01.421Z,20.38
2022-08-20T00:32:11.417Z,20.49
2022-08-20T00:32:21.409Z,20.50
2022-08-20T00:32:31.409Z,20.38
2022-08-20T00:32:42.404Z,20.39
2022-08-20T00:32:51.413Z,20.35
2022-08-20T00:33:01.407Z,20.42
2022-08-20T00:33:11.957Z,20.47
2022-08-20T00:33:21.409Z,20.33
2022-08-20T00:33:32.396Z,20.35
2022-08-20T00:33:41.416Z,20.31
2022-08-20T00:33:51.484Z,20.43
2022-08-20T00:34:01.413Z,20.39
2022-08-20T00:34:11.425Z,20.39
2022-08-20T00:34:21.412Z,20.41
2022-08-20T00:34:31.400Z,20.31
2022-08-20T00:34:41.903Z,20.34
2022-08-20T00:34:51.897Z,20.41
2022-08-20T00:35:01.510Z,20.41
2022-08-20T00:35:12.930Z,20.35
2022-08-20T00:35:21.395Z,20.38
2022-08-20T00:35:31.394Z,20.35
2022-08-20T00:35:41.417Z,20.42
2022-08-20T00:35:51.399Z,20.35
2022-08-20T00:36:01.395Z,20.46
2022-08-20T00:36:11.423Z,20.49
2022-08-20T00:36:21.402Z,20.41
2022-08-20T00:36:32.532Z,20.38
2022-08-20T00:36:41.412Z,20.33
2022-08-20T00:36:51.384Z,20.30
2022-08-20T00:37:01.397Z,20.41
2022-08-20T00:37:11.385Z,20.38
2022-08-20T00:37:21.390Z,20.33
2022-08-20T00:37:31.398Z,20.34
2022-08-20T00:37:41.391Z,20.34
2022-08-20T00:37:51.440Z,20.31
2022-08-20T00:38:01.743Z,20.25
2022-08-20T00:38:11.379Z,20.41
2022-08-20T00:38:21.446Z,20.34
2022-08-20T00:38:31.398Z,20.38
2022-08-20T00:38:41.411Z,20.41
2022-08-20T00:38:51.899Z,20.47
2022-08-20T00:39:01.430Z,20.41
2022-08-20T00:39:11.385Z,20.33
2022-08-20T00:39:21.417Z,20.41
2022-08-20T00:39:31.386Z,20.39
2022-08-20T00:39:41.440Z,20.41
2022-08-20T00:39:51.457Z,20.33
2022-08-20T00:40:01.435Z,20.41
2022-08-20T00:40:22.402Z,20.43
2022-08-20T00:40:22.657Z,20.31
2022-08-20T00:40:31.389Z,20.38
2022-08-20T00:40:41.366Z,20.31
2022-08-20T00:40:51.463Z,20.46
2022-08-20T00:41:01.366Z,20.39
2022-08-20T00:41:11.371Z,20.42
2022-08-20T00:41:21.567Z,20.49
2022-08-20T00:41:31.374Z,20.31
2022-08-20T00:41:41.369Z,20.43
2022-08-20T00:41:51.369Z,20.42
2022-08-20T00:42:01.397Z,20.39
2022-08-20T00:42:11.369Z,20.54
2022-08-20T00:42:21.368Z,20.41
2022-08-20T00:42:31.373Z,20.34
2022-08-20T00:42:41.377Z,20.34
2022-08-20T00:42:51.945Z,20.43
2022-08-20T00:43:01.536Z,20.33
2022-08-20T00:43:11.446Z,20.31
2022-08-20T00:43:21.478Z,20.46
2022-08-20T00:43:31.415Z,20.35
2022-08-20T00:43:41.362Z,20.39
2022-08-20T00:43:51.355Z,20.39
2022-08-20T00:44:01.666Z,20.41
2022-08-20T00:44:11.363Z,20.39
2022-08-20T00:44:21.351Z,20.51
2022-08-20T00:44:31.371Z,20.38
2022-08-20T00:44:41.372Z,20.43
2022-08-20T00:44:51.368Z,20.51
2022-08-20T00:45:01.354Z,20.33
2022-08-20T00:45:11.380Z,20.31
2022-08-20T00:45:21.358Z,20.38
2022-08-20T00:45:31.362Z,20.34
2022-08-20T00:45:41.362Z,20.39
2022-08-20T00:45:51.357Z,20.42
2022-08-20T00:46:01.361Z,20.41
2022-08-20T00:46:11.360Z,20.41
2022-08-20T00:46:21.342Z,20.31
2022-08-20T00:46:31.896Z,20.34
2022-08-20T00:46:41.338Z,20.42
2022-08-20T00:46:51.358Z,20.38
2022-08-20T00:47:02.013Z,20.30
2022-08-20T00:47:11.915Z,20.42
2022-08-20T00:47:21.343Z,20.38
2022-08-20T00:47:31.352Z,20.47
2022-08-20T00:47:41.333Z,20.46
2022-08-20T00:47:51.811Z,20.38
2022-08-20T00:48:01.342Z,20.42
2022-08-20T00:48:11.395Z,20.41
2022-08-20T00:48:21.342Z,20.41
2022-08-20T00:48:31.348Z,20.39
2022-08-20T00:48:41.385Z,20.46
2022-08-20T00:48:51.371Z,20.31
2022-08-20T00:49:01.668Z,20.38
2022-08-20T00:49:11.346Z,20.47
2022-08-20T00:49:21.333Z,20.41
2022-08-20T00:49:31.354Z,20.35
2022-08-20T00:49:41.332Z,20.42
2022-08-20T00:49:51.338Z,20.46
2022-08-20T00:50:01.326Z,20.47
2022-08-20T00:50:11.329Z,20.38
2022-08-20T00:50:21.341Z,20.42
2022-08-20T00:50:31.413Z,20.50
2022-08-20T00:50:41.320Z,20.47
2022-08-20T00:50:51.333Z,20.39
2022-08-20T00:51:01.903Z,20.46
2022-08-20T00:51:11.926Z,20.39
2022-08-20T00:51:21.431Z,20.35
2022-08-20T00:51:31.916Z,20.38
2022-08-20T00:51:41.332Z,20.46
2022-08-20T00:51:51.328Z,20.46
2022-08-20T00:52:01.316Z,20.39
2022-08-20T00:52:11.332Z,20.42
2022-08-20T00:52:21.316Z,20.54
2022-08-20T00:52:31.340Z,20.41
2022-08-20T00:52:41.311Z,20.43
2022-08-20T00:52:51.317Z,20.43
2022-08-20T00:53:01.310Z,20.50
2022-08-20T00:53:11.346Z,20.47
2022-08-20T00:53:21.308Z,20.51
2022-08-20T00:53:31.311Z,20.53
2022-08-20T00:53:41.336Z,20.39
2022-08-20T00:53:51.455Z,20.50
2022-08-20T00:54:01.311Z,20.46
2022-08-20T00:54:11.337Z,20.47
2022-08-20T00:54:21.305Z,20.50
2022-08-20T00:54:31.322Z,20.53
2022-08-20T00:54:41.388Z,20.59
2022-08-20T00:54:51.310Z,20.50
2022-08-20T00:55:01.316Z,20.64
2022-08-20T00:55:11.943Z,20.49
2022-08-20T00:55:21.360Z,20.51
2022-08-20T00:55:31.717Z,20.58
2022-08-20T00:55:41.302Z,20.49
2022-08-20T00:55:51.321Z,20.53
2022-08-20T00:56:01.310Z,20.39
2022-08-20T00:56:11.302Z,20.47
2022-08-20T00:56:21.292Z,20.51
2022-08-20T00:56:31.321Z,20.49
2022-08-20T00:56:41.350Z,20.58
2022-08-20T00:56:51.294Z,20.64
2022-08-20T00:57:01.305Z,20.61
2022-08-20T00:57:11.298Z,20.53
2022-08-20T00:57:21.342Z,20.47
2022-08-20T00:57:44.541Z,20.58
2022-08-20T00:57:53.297Z,20.47
2022-08-20T00:58:01.426Z,20.46
2022-08-20T00:58:02.063Z,20.53
2022-08-20T00:58:11.288Z,20.54
2022-08-20T00:58:21.398Z,20.61
2022-08-20T00:58:31.286Z,20.47
2022-08-20T00:58:41.288Z,20.49
2022-08-20T00:58:51.297Z,20.54
2022-08-20T00:59:01.360Z,20.47
2022-08-20T00:59:11.304Z,20.47
2022-08-20T00:59:21.915Z,20.64
2022-08-20T00:59:31.368Z,20.66
2022-08-20T00:59:41.281Z,20.47
2022-08-20T00:59:51.291Z,20.42
2022-08-20T01:00:01.302Z,20.42
2022-08-20T01:00:11.316Z,20.42
2022-08-20T01:00:21.279Z,20.46
2022-08-20T01:00:31.286Z,20.51
2022-08-20T01:00:41.277Z,20.58
2022-08-20T01:00:51.276Z,20.46
2022-08-20T01:01:01.274Z,20.49
2022-08-20T01:01:11.277Z,20.42
2022-08-20T01:01:21.295Z,20.28
2022-08-20T01:01:31.321Z,20.54
2022-08-20T01:01:55.310Z,20.53
2022-08-20T01:01:55.454Z,20.47
2022-08-20T01:02:01.340Z,20.42
2022-08-20T01:02:11.394Z,20.46
2022-08-20T01:02:21.317Z,20.51
2022-08-20T01:02:31.266Z,20.43
2022-08-20T01:02:41.287Z,20.47
2022-08-20T01:02:51.266Z,20.51
2022-08-20T01:03:01.273Z,20.43
2022-08-20T01:03:11.272Z,20.39
2022-08-20T01:03:21.281Z,20.38
2022-08-20T01:03:31.318Z,20.49
2022-08-20T01:03:41.355Z,20.47
2022-08-20T01:03:51.273Z,20.43
2022-08-20T01:04:01.255Z,20.41
2022-08-20T01:04:11.306Z,20.43
2022-08-20T01:04:21.380Z,20.38
2022-08-20T01:04:31.263Z,20.46
2022-08-20T01:04:41.349Z,20.46
2022-08-20T01:04:51.258Z,20.25
2022-08-20T01:05:01.265Z,20.38
2022-08-20T01:05:11.271Z,20.49
2022-08-20T01:05:21.250Z,20.34
2022-08-20T01:05:31.275Z,20.33
2022-08-20T01:05:41.248Z,20.38
2022-08-20T01:05:51.257Z,20.39
2022-08-20T01:06:01.248Z,20.41
2022-08-20T01:06:11.272Z,20.33
2022-08-20T01:06:21.254Z,20.42
2022-08-20T01:06:31.250Z,20.41
2022-08-20T01:06:41.248Z,20.43
2022-08-20T01:06:51.261Z,20.46
2022-08-20T01:07:01.241Z,20.42
2022-08-20T01:07:11.934Z,20.34
2022-08-20T01:07:21.250Z,20.41
2022-08-20T01:07:31.259Z,20.30
2022-08-20T01:07:41.345Z,20.34
2022-08-20T01:07:51.252Z,20.38
2022-08-20T01:08:01.260Z,20.31
2022-08-20T01:08:11.239Z,20.27
2022-08-20T01:08:21.255Z,20.30
2022-08-20T01:08:31.917Z,20.39
2022-08-20T01:08:41.244Z,20.35
2022-08-20T01:08:51.248Z,20.42
2022-08-20T01:09:01.240Z,20.31
2022-08-20T01:09:11.243Z,20.25
2022-08-20T01:09:33.460Z,20.23
2022-08-20T01:09:50.596Z,20.27
2022-08-20T01:09:57.834Z,20.28
2022-08-20T01:09:59.353Z,20.38
2022-08-20T01:10:01.244Z,20.31
2022-08-20T01:10:11.234Z,20.33
2022-08-20T01:10:21.227Z,20.34
2022-08-20T01:10:31.251Z,20.27
2022-08-20T01:10:41.227Z,20.25
2022-08-20T01:10:51.229Z,20.30
2022-08-20T01:11:01.227Z,20.21
2022-08-20T01:11:11.230Z,20.27
2022-08-20T01:11:21.223Z,20.31
2022-08-20T01:11:31.253Z,20.23
2022-08-20T01:11:41.919Z,20.28
2022-08-20T01:11:51.309Z,20.24
2022-08-20T01:12:01.224Z,20.20
2022-08-20T01:12:11.220Z,20.33
2022-08-20T01:12:21.217Z,20.23
2022-08-20T01:12:31.229Z,20.28
2022-08-20T01:12:41.217Z,20.25
2022-08-20T01:12:54.916Z,20.23
2022-08-20T01:13:01.239Z,20.27
2022-08-20T01:13:11.297Z,20.16
2022-08-20T01:13:21.221Z,20.24
2022-08-20T01:13:31.234Z,20.25
2022-08-20T01:13:41.214Z,20.33
2022-08-20T01:13:51.228Z,20.24
2022-08-20T01:14:01.217Z,20.23
2022-08-20T01:14:11.219Z,20.23
2022-08-20T01:14:21.219Z,20.20
2022-08-20T01:14:31.272Z,20.15
2022-08-20T01:14:41.211Z,20.23
2022-08-20T01:14:51.232Z,20.23
2022-08-20T01:15:01.204Z,20.20
2022-08-20T01:15:11.210Z,20.18
2022-08-20T01:15:21.256Z,20.21
2022-08-20T01:15:31.340Z,20.16
2022-08-20T01:15:43.344Z,20.20
2022-08-20T01:15:51.262Z,20.13
2022-08-20T01:16:01.293Z,20.21
2022-08-20T01:16:11.204Z,20.18
2022-08-20T01:16:21.198Z,20.28
2022-08-20T01:16:31.923Z,20.24
2022-08-20T01:16:41.198Z,20.20
2022-08-20T01:16:51.205Z,20.16
2022-08-20T01:17:01.200Z,20.25
2022-08-20T01:17:11.813Z,20.16
2022-08-20T01:17:21.193Z,20.16
2022-08-20T01:17:31.210Z,20.16
2022-08-20T01:17:41.910Z,20.13
2022-08-20T01:17:51.199Z,20.10
2022-08-20T01:18:01.191Z,20.05
2022-08-20T01:18:11.280Z,20.08
2022-08-20T01:18:21.189Z,20.15
2022-08-20T01:18:31.194Z,20.02
2022-08-20T01:18:41.210Z,20.08
2022-08-20T01:18:51.197Z,20.16
2022-08-20T01:19:01.188Z,20.05
2022-08-20T01:19:29.394Z,20.06
2022-08-20T01:19:29.665Z,20.09
2022-08-20T01:19:31.191Z,20.08
2022-08-20T01:19:41.241Z,20.09
2022-08-20T01:19:51.915Z,20.09
2022-08-20T01:20:01.291Z,20.02
2022-08-20T01:20:11.187Z,20.10
2022-08-20T01:20:21.182Z,20.06
2022-08-20T01:20:31.183Z,20.09
2022-08-20T01:20:41.178Z,20.03
2022-08-20T01:20:51.208Z,20.03
2022-08-20T01:21:01.188Z,20.05
2022-08-20T01:21:11.179Z,20.09
2022-08-20T01:21:21.175Z,20.00
2022-08-20T01:21:31.194Z,20.08
2022-08-20T01:21:41.178Z,20.03
2022-08-20T01:21:51.923Z,19.93
2022-08-20T01:22:01.182Z,20.08
2022-08-20T01:22:11.175Z,20.00
2022-08-20T01:22:21.169Z,20.03
2022-08-20T01:22:31.206Z,19.97
2022-08-20T01:22:41.172Z,20.00
2022-08-20T01:22:51.169Z,20.00
2022-08-20T01:23:01.198Z,20.10
2022-08-20T01:23:11.339Z,19.97
2022-08-20T01:23:21.178Z,20.06
2022-08-20T01:23:31.168Z,19.93
2022-08-20T01:23:41.185Z,20.05
2022-08-20T01:23:51.180Z,19.98
2022-08-20T01:24:01.239Z,20.00
2022-08-20T01:24:11.162Z,20.08
2022-08-20T01:24:21.183Z,20.13
2022-08-20T01:24:31.159Z,20.00
2022-08-20T01:24:41.168Z,20.16
2022-08-20T01:24:51.225Z,20.00
2022-08-20T01:25:01.161Z,20.03
2022-08-20T01:25:11.167Z,19.94
2022-08-20T01:25:21.162Z,20.10
2022-08-20T01:25:31.269Z,20.06
2022-08-20T01:25:41.162Z,20.08
2022-08-20T01:25:51.176Z,20.02
2022-08-20T01:26:01.161Z,20.05
2022-08-20T01:26:11.156Z,19.98
2022-08-20T01:26:21.153Z,20.05
2022-08-20T01:26:31.886Z,20.15
2022-08-20T01:26:41.160Z,20.06
2022-08-20T01:26:51.930Z,19.97
2022-08-20T01:27:01.150Z,19.95
2022-08-20T01:27:11.161Z,20.05
2022-08-20T01:27:21.151Z,20.05
2022-08-20T01:27:31.154Z,20.03
2022-08-20T01:27:42.782Z,19.95
2022-08-20T01:27:53.230Z,20.06
2022-08-20T01:28:02.119Z,20.03
2022-08-20T01:28:11.152Z,20.05
2022-08-20T01:28:21.146Z,20.06
2022-08-20T01:28:31.146Z,19.93
2022-08-20T01:28:41.174Z,20.08
2022-08-20T01:28:51.139Z,19.97
2022-08-20T01:29:01.141Z,20.05
2022-08-20T01:29:11.145Z,19.93
2022-08-20T01:29:21.142Z,20.00
2022-08-20T01:29:31.916Z,20.03
2022-08-20T01:29:41.138Z,20.03
2022-08-20T01:29:51.134Z,20.09
2022-08-20T01:30:01.176Z,20.08
2022-08-20T01:30:11.137Z,20.08
2022-08-20T01:30:21.138Z,19.98
2022-08-20T01:30:31.152Z,20.08
2022-08-20T01:30:41.134Z,20.06
2022-08-20T01:30:51.132Z,20.15
2022-08-20T01:31:01.141Z,20.05
2022-08-20T01:31:11.127Z,20.08
2022-08-20T01:31:21.134Z,19.98
2022-08-20T01:31:31.149Z,20.08
2022-08-20T01:31:41.132Z,19.90
2022-08-20T01:31:51.128Z,20.03
2022-08-20T01:32:01.925Z,20.12
2022-08-20T01:32:11.167Z,20.09
2022-08-20T01:32:21.236Z,20.06
2022-08-20T01:32:31.121Z,20.13
2022-08-20T01:32:41.127Z,20.05
2022-08-20T01:32:51.133Z,20.03
2022-08-20T01:33:01.122Z,19.95
2022-08-20T01:33:11.233Z,20.03
2022-08-20T01:33:21.193Z,20.08
2022-08-20T01:33:31.117Z,20.09
2022-08-20T01:33:41.121Z,20.13
2022-08-20T01:33:51.138Z,20.12
2022-08-20T01:34:01.124Z,20.00
2022-08-20T01:34:11.128Z,20.06
2022-08-20T01:34:21.129Z,20.18
2022-08-20T01:34:31.115Z,20.02
2022-08-20T01:34:41.134Z,20.09
2022-08-20T01:34:51.156Z,20.02
2022-08-20T01:35:01.124Z,20.06
2022-08-20T01:35:11.152Z,20.03
2022-08-20T01:35:21.216Z,20.15
2022-08-20T01:35:31.115Z,20.02
2022-08-20T01:35:41.123Z,20.03
2022-08-20T01:35:51.113Z,20.10
2022-08-20T01:36:01.135Z,20.15
2022-08-20T01:36:12.367Z,20.02
2022-08-20T01:36:21.188Z,20.23
2022-08-20T01:36:31.104Z,20.08
2022-08-20T01:36:45.912Z,20.09
2022-08-20T01:36:51.107Z,20.12
2022-08-20T01:37:01.106Z,19.97
2022-08-20T01:37:11.101Z,20.02
2022-08-20T01:37:21.107Z,20.08
2022-08-20T01:37:31.443Z,20.03
2022-08-20T01:37:41.104Z,20.08
2022-08-20T01:37:51.097Z,20.08
2022-08-20T01:38:01.103Z,19.98
2022-08-20T01:38:11.920Z,20.08
2022-08-20T01:38:21.104Z,20.05
2022-08-20T01:38:31.221Z,20.05
2022-08-20T01:38:41.104Z,19.98
2022-08-20T01:38:54.210Z,20.00
2022-08-20T01:39:01.106Z,20.10
2022-08-20T01:39:11.090Z,20.03
2022-08-20T01:39:21.100Z,20.03
2022-08-20T01:39:31.100Z,20.00
2022-08-20T01:39:41.143Z,20.09
2022-08-20T01:39:51.176Z,19.95
2022-08-20T01:40:01.155Z,19.97
2022-08-20T01:40:12.020Z,20.03
2022-08-20T01:40:21.405Z,19.93
2022-08-20T01:40:31.086Z,20.05
2022-08-20T01:40:41.088Z,20.05
2022-08-20T01:40:51.104Z,19.97
2022-08-20T01:41:01.138Z,20.06
2022-08-20T01:41:11.085Z,20.06
2022-08-20T01:41:23.495Z,20.02
2022-08-20T01:41:31.080Z,20.10
2022-08-20T01:41:41.083Z,19.97
2022-08-20T01:41:51.102Z,19.88
2022-08-20T01:42:01.082Z,19.95
2022-08-20T01:42:11.077Z,19.93
2022-08-20T01:42:21.086Z,20.21
2022-08-20T01:42:31.079Z,19.91
2022-08-20T01:42:52.793Z,20.05
2022-08-20T01:42:54.006Z,19.95
2022-08-20T01:43:01.080Z,19.97
2022-08-20T01:43:11.166Z,19.90
2022-08-20T01:43:21.402Z,19.94
2022-08-20T01:43:31.072Z,19.98
2022-08-20T01:43:41.074Z,19.88
2022-08-20T01:43:51.105Z,19.97
2022-08-20T01:44:01.074Z,20.02
2022-08-20T01:44:11.084Z,19.91
2022-08-20T01:44:21.933Z,19.88
2022-08-20T01:44:31.189Z,19.98
2022-08-20T01:44:41.073Z,19.94
2022-08-20T01:44:51.067Z,19.90
2022-08-20T01:45:01.770Z,19.80
2022-08-20T01:45:11.075Z,19.86
2022-08-20T01:45:21.068Z,19.79
2022-08-20T01:45:31.119Z,19.86
2022-08-20T01:45:41.079Z,19.97
2022-08-20T01:45:51.065Z,19.88
2022-08-20T01:46:01.067Z,19.88
2022-08-20T01:46:11.058Z,19.88
2022-08-20T01:46:21.060Z,19.93
2022-08-20T01:46:31.058Z,19.98
2022-08-20T01:46:43.767Z,19.84
2022-08-20T01:46:51.094Z,19.87
2022-08-20T01:47:01.071Z,19.91
2022-08-20T01:47:11.069Z,19.88
2022-08-20T01:47:21.063Z,19.91
2022-08-20T01:47:31.067Z,19.87
2022-08-20T01:47:41.058Z,19.87
2022-08-20T01:47:51.064Z,19.76
2022-08-20T01:48:01.141Z,19.83
2022-08-20T01:48:11.054Z,19.88
2022-08-20T01:48:21.117Z,19.98
2022-08-20T01:48:31.937Z,19.87
2022-08-20T01:48:41.050Z,19.84
2022-08-20T01:48:51.057Z,19.87
2022-08-20T01:49:01.056Z,19.79
2022-08-20T01:49:13.681Z,19.83
2022-08-20T01:49:23.134Z,19.79
2022-08-20T01:49:31.928Z,19.86
2022-08-20T01:49:41.047Z,19.78
2022-08-20T01:49:51.049Z,19.87
2022-08-20T01:50:01.114Z,19.80
2022-08-20T01:50:11.067Z,19.78
2022-08-20T01:50:21.057Z,19.76
2022-08-20T01:50:31.082Z,19.76
2022-08-20T01:50:41.123Z,19.83
2022-08-20T01:50:51.053Z,19.87
2022-08-20T01:51:01.052Z,19.86
2022-08-20T01:51:11.039Z,19.87
2022-08-20T01:51:21.044Z,19.76
2022-08-20T01:51:31.047Z,19.78
2022-08-20T01:51:41.045Z,19.68
2022-08-20T01:51:51.034Z,19.78
2022-08-20T01:52:01.044Z,19.66
2022-08-20T01:52:11.029Z,19.90
2022-08-20T01:52:21.215Z,19.90
2022-08-20T01:52:31.939Z,19.83
2022-08-20T01:52:41.089Z,19.76
2022-08-20T01:52:51.030Z,19.84
2022-08-20T01:53:01.035Z,19.86
2022-08-20T01:53:11.037Z,19.75
2022-08-20T01:53:21.040Z,19.70
2022-08-20T01:53:31.026Z,19.84
2022-08-20T01:53:41.040Z,19.83
2022-08-20T01:53:51.016Z,19.79
2022-08-20T01:54:01.038Z,19.84
2022-08-20T01:54:11.028Z,19.84
2022-08-20T01:54:21.024Z,19.79
2022-08-20T01:54:31.937Z,19.83
2022-08-20T01:54:41.033Z,19.70
2022-08-20T01:54:51.033Z,19.83
2022-08-20T01:55:01.019Z,19.76
2022-08-20T01:55:11.017Z,19.86
2022-08-20T01:55:21.045Z,19.73
2022-08-20T01:55:31.021Z,19.78
2022-08-20T01:55:41.097Z,19.78
2022-08-20T01:55:51.058Z,19.78
2022-08-20T01:56:01.020Z,19.91
2022-08-20T01:56:11.023Z,19.87
2022-08-20T01:56:21.015Z,19.69
2022-08-20T01:56:31.022Z,19.87
2022-08-20T01:56:41.940Z,19.80
2022-08-20T01:56:51.101Z,19.69
2022-08-20T01:57:01.030Z,19.79
2022-08-20T01:57:11.009Z,19.78
2022-08-20T01:57:21.036Z,19.72
2022-08-20T01:57:31.027Z,19.76
2022-08-20T01:57:41.013Z,19.66
2022-08-20T01:57:51.013Z,19.87
2022-08-20T01:58:01.022Z,19.76
2022-08-20T01:58:11.006Z,19.72
2022-08-20T01:58:21.038Z,19.68
2022-08-20T01:58:31.030Z,19.72
2022-08-20T01:58:41.010Z,19.63
2022-08-20T01:58:54.836Z,19.66
2022-08-20T01:59:01.006Z,19.61
2022-08-20T01:59:11.001Z,19.73
2022-08-20T01:59:21.020Z,19.63
2022-08-20T01:59:31.931Z,19.72
2022-08-20T01:59:41.111Z,19.78
2022-08-20T01:59:51.007Z,19.73
2022-08-20T02:00:01.002Z,19.65
2022-08-20T02:00:11.112Z,19.63
2022-08-20T02:00:22.086Z,19.70
2022-08-20T02:00:30.993Z,19.70
2022-08-20T02:00:41.024Z,19.70
2022-08-20T02:00:51.132Z,19.65
2022-08-20T02:01:01.940Z,19.61
2022-08-20T02:01:11.003Z,19.66
2022-08-20T02:01:21.252Z,19.66
2022-08-20T02:01:31.048Z,19.69
2022-08-20T02:01:46.453Z,19.68
2022-08-20T02:01:51.027Z,19.60
2022-08-20T02:02:01.106Z,19.65
2022-08-20T02:02:11.010Z,19.72
2022-08-20T02:02:20.987Z,19.68
2022-08-20T02:02:30.983Z,19.72
2022-08-20T02:02:41.011Z,19.66
2022-08-20T02:02:50.982Z,19.76
2022-08-20T02:03:00.988Z,19.60
2022-08-20T02:03:11.003Z,19.60
2022-08-20T02:03:21.993Z,19.58
2022-08-20T02:03:36.577Z,19.61
2022-08-20T02:03:44.647Z,19.66
2022-08-20T02:03:50.979Z,19.68
2022-08-20T02:04:01.017Z,19.54
2022-08-20T02:04:15.199Z,19.68
2022-08-20T02:04:20.984Z,19.63
2022-08-20T02:04:31.001Z,19.61
2022-08-20T02:04:40.992Z,19.72
2022-08-20T02:04:51.029Z,19.60
2022-08-20T02:05:01.085Z,19.60
2022-08-20T02:05:10.978Z,19.66
2022-08-20T02:05:20.969Z,19.58
2022-08-20T02:05:30.988Z,19.63
2022-08-20T02:05:40.971Z,19.70
2022-08-20T02:05:50.999Z,19.63
2022-08-20T02:06:00.989Z,19.68
2022-08-20T02:06:11.020Z,19.53
2022-08-20T02:06:20.981Z,19.57
2022-08-20T02:06:30.982Z,19.53
2022-08-20T02:06:40.965Z,19.61
2022-08-20T02:06:56.875Z,19.55
2022-08-20T02:07:00.967Z,19.58
2022-08-20T02:07:10.967Z,19.51
2022-08-20T02:07:20.973Z,19.55
2022-08-20T02:07:30.967Z,19.53
2022-08-20T02:07:40.982Z,19.61
2022-08-20T02:07:50.981Z,19.53
2022-08-20T02:08:00.965Z,19.58
2022-08-20T02:08:10.963Z,19.58
2022-08-20T02:08:20.964Z,19.55
2022-08-20T02:08:30.971Z,19.61
2022-08-20T02:08:40.962Z,19.57